Decoded Metar for KIPJ (LINCOLNTON in NC, USA) (IATA:IPJ) | Meteo·Mobile Aviation Weather
aviador You're here:

KIPJ Decoded Metar

LINCOLNTON in NC, USA
Report Time2018-08-21 10:15:00
UTC Time2018-08-21 10:37:06
Flight Rules ifr IFR
Wind210° at 06 kt
W.Decomp.*RWY 23: 5.8 kt HW 1.5 kt LCW
W.Rank210° ranks 4
Current wind is above 210° avg. (5.1)
Visibility9999 m
Phenomena:N/A
Clouds:Overcast 005 Hf
Ceiling500 ft
Temp23°C (ISA +10)
Dew Point23°C (100% RH)
QNH1017 hPa
Density Alt2,247 ft
Elevation876 ft
Report Wrong Elevation
Raw Report
METAR KIPJ 211015Z AUTO 21006KT 7SM OVC005 23/23 A3002 RMK AO2 T02250225=

Extra information for KIPJ:More info

Metar Taf Metar & Taf Last 4 Metars F.Rules Stats Wind Profile Meteogram Temp Stats Airport Information Weather charts Add Link Nearby VenuesMetar ALERT Operation Metar Decoded Social comments

AIRNAV info for KIPJ